Time;durP1;ratioP1;P1;durP2;ratioP2;P2;SDS_P1;SDS_P2;PMS_P1;PMS_P2;Temp;Humidity;BMP_temperature;BMP_pressure;BME280_temperature;BME280_humidity;BME280_pressure;Samples;Min_cycle;Max_cycle;Signal;HPM_P1;HPM_P2
2023/07/01 00:00:20;;;;;;;4.15;2.90;;;;;;;14.52;100.00;100063.47;5170116;28;20392;-72
2023/07/01 00:02:52;;;;;;;5.45;3.20;;;;;;;14.45;100.00;100063.00;5165834;28;20030;-71
2023/07/01 00:05:23;;;;;;;3.95;3.10;;;;;;;14.39;100.00;100052.84;5168920;28;20033;-72
2023/07/01 00:07:53;;;;;;;6.15;3.33;;;;;;;14.41;100.00;100055.41;5168078;28;20029;-72
2023/07/01 00:10:25;;;;;;;6.13;3.25;;;;;;;14.52;100.00;100047.69;5172216;28;20034;-71
2023/07/01 00:12:55;;;;;;;5.30;3.17;;;;;;;14.52;100.00;100040.66;5170158;28;20036;-71
2023/07/01 00:15:26;;;;;;;6.78;3.47;;;;;;;14.52;100.00;100043.31;5152977;28;20492;-72
2023/07/01 00:17:56;;;;;;;6.80;3.28;;;;;;;14.52;100.00;100048.56;5166210;28;20045;-72
2023/07/01 00:20:26;;;;;;;4.78;3.58;;;;;;;14.41;100.00;100050.13;5167603;28;20440;-72
2023/07/01 00:22:57;;;;;;;6.03;3.40;;;;;;;14.53;100.00;100042.34;5173874;28;20068;-72
2023/07/01 00:25:27;;;;;;;9.25;3.40;;;;;;;14.39;100.00;100044.13;5155965;28;20021;-71
2023/07/01 00:27:57;;;;;;;7.70;3.65;;;;;;;14.31;100.00;100033.19;5142412;28;20324;-71
2023/07/01 00:30:28;;;;;;;6.07;3.58;;;;;;;14.30;100.00;100028.88;5167895;28;20026;-72
2023/07/01 00:33:00;;;;;;;9.68;3.53;;;;;;;14.23;100.00;100027.56;5171797;28;20072;-71
2023/07/01 00:35:30;;;;;;;5.65;3.25;;;;;;;14.18;100.00;100022.56;5158771;28;20064;-72
2023/07/01 00:38:00;;;;;;;5.60;3.80;;;;;;;14.18;100.00;100022.56;5174236;28;20470;-71
2023/07/01 00:40:31;;;;;;;5.10;3.40;;;;;;;14.21;100.00;100019.75;5172258;28;20041;-72
2023/07/01 00:43:01;;;;;;;7.93;4.28;;;;;;;14.25;100.00;100025.69;5171862;28;20037;-72
2023/07/01 00:45:31;;;;;;;7.68;3.60;;;;;;;14.26;100.00;100017.69;5158346;28;20041;-72
2023/07/01 00:48:01;;;;;;;6.13;3.47;;;;;;;14.17;100.00;100014.78;5173644;28;20033;-72
2023/07/01 00:50:32;;;;;;;6.32;3.10;;;;;;;14.27;100.00;100015.94;5171379;28;20455;-71
2023/07/01 00:53:02;;;;;;;6.05;3.30;;;;;;;14.13;100.00;100008.84;5170859;28;20030;-72
2023/07/01 00:55:32;;;;;;;7.88;3.38;;;;;;;14.08;100.00;100007.41;5170656;28;20034;-71
2023/07/01 00:58:03;;;;;;;7.38;3.20;;;;;;;14.17;100.00;99999.00;5168388;28;20022;-71
2023/07/01 01:00:34;;;;;;;6.20;2.80;;;;;;;14.20;100.00;100006.69;5168447;28;20034;-71
2023/07/01 01:03:22;;;;;;;15.40;4.10;;;;;;;14.06;100.00;100004.03;5168483;28;20400;-71
2023/07/01 01:06:05;;;;;;;5.88;3.35;;;;;;;14.05;100.00;100000.53;5169241;28;20077;-71
2023/07/01 01:09:00;;;;;;;6.25;3.60;;;;;;;13.97;100.00;100009.81;5169343;28;20030;-70
2023/07/01 01:11:32;;;;;;;15.82;4.80;;;;;;;13.94;100.00;99991.59;5169890;28;20134;-72
2023/07/01 01:14:06;;;;;;;9.43;3.65;;;;;;;13.84;100.00;99991.28;5169864;28;20064;-72
2023/07/01 01:16:39;;;;;;;3.75;2.97;;;;;;;13.81;100.00;99993.25;5167883;28;20038;-71
2023/07/01 01:19:21;;;;;;;8.13;3.30;;;;;;;13.77;100.00;99979.44;5176140;28;20499;-71
2023/07/01 01:22:14;;;;;;;8.38;3.45;;;;;;;13.66;100.00;99994.13;5166749;28;20034;-71
2023/07/01 01:24:50;;;;;;;7.30;3.38;;;;;;;13.64;100.00;99983.72;5165523;28;20050;-72
2023/07/01 01:27:27;;;;;;;6.35;3.35;;;;;;;13.68;100.00;99979.13;5151242;28;20152;-72
2023/07/01 01:29:58;;;;;;;4.40;3.17;;;;;;;13.50;100.00;99980.16;5167216;28;20027;-71
2023/07/01 01:32:28;;;;;;;10.82;3.20;;;;;;;13.57;100.00;99981.53;5172373;28;20141;-72
2023/07/01 01:34:58;;;;;;;4.15;3.00;;;;;;;13.72;100.00;99976.22;5169509;28;20026;-72
2023/07/01 01:37:42;;;;;;;7.28;2.90;;;;;;;13.63;100.00;99973.28;5168232;28;20036;-72
2023/07/01 01:40:23;;;;;;;9.48;2.78;;;;;;;13.75;100.00;99977.84;5171949;28;20449;-72
2023/07/01 01:43:03;;;;;;;10.73;2.85;;;;;;;13.66;100.00;99966.09;5164881;28;20022;-71
2023/07/01 01:45:34;;;;;;;6.55;2.50;;;;;;;13.68;100.00;99969.47;5168766;28;20124;-72
2023/07/01 01:48:05;;;;;;;9.52;2.92;;;;;;;13.65;100.00;99961.78;5169186;28;20124;-72
2023/07/01 01:50:37;;;;;;;7.20;2.70;;;;;;;13.65;100.00;99967.03;5169040;28;20058;-72
2023/07/01 01:53:10;;;;;;;6.38;2.70;;;;;;;13.65;100.00;99968.78;5168846;28;20040;-72
2023/07/01 01:55:41;;;;;;;7.95;2.72;;;;;;;13.62;100.00;99964.59;5166122;28;20500;-72
2023/07/01 01:58:12;;;;;;;12.43;3.10;;;;;;;13.65;100.00;99958.28;5168370;28;20755;-72
2023/07/01 02:00:45;;;;;;;3.55;2.50;;;;;;;13.61;100.00;99959.41;5166621;28;20121;-70
2023/07/01 02:03:16;;;;;;;14.27;3.28;;;;;;;13.55;100.00;99954.53;5168717;28;20077;-73
2023/07/01 02:05:47;;;;;;;9.32;2.78;;;;;;;13.61;100.00;99956.78;5165305;28;20100;-71
2023/07/01 02:08:17;;;;;;;6.13;2.63;;;;;;;13.63;100.00;99949.66;5166449;28;20105;-72
2023/07/01 02:10:47;;;;;;;8.85;2.58;;;;;;;13.64;100.00;99946.09;5170669;28;20045;-71
2023/07/01 02:13:18;;;;;;;12.35;2.78;;;;;;;13.57;100.00;99944.78;5171828;28;20036;-72
2023/07/01 02:15:48;;;;;;;6.95;2.90;;;;;;;13.54;100.00;99942.34;5171768;28;20483;-70
2023/07/01 02:18:18;;;;;;;7.70;2.90;;;;;;;13.55;100.00;99936.97;5167766;28;20030;-72
2023/07/01 02:20:48;;;;;;;8.68;2.70;;;;;;;13.54;100.00;99931.84;5164318;28;20113;-70
2023/07/01 02:23:19;;;;;;;11.45;3.00;;;;;;;13.59;100.00;99937.66;5168419;28;20415;-71
2023/07/01 02:25:49;;;;;;;5.20;2.55;;;;;;;13.65;100.00;99932.03;5166329;28;20035;-71
2023/07/01 02:28:19;;;;;;;11.15;2.75;;;;;;;13.64;100.00;99931.22;5167349;28;20427;-71
2023/07/01 02:30:49;;;;;;;12.35;2.80;;;;;;;13.71;100.00;99923.81;5150309;28;20128;-71
2023/07/01 02:33:20;;;;;;;11.50;2.97;;;;;;;13.65;100.00;99918.91;5167929;28;20510;-71
2023/07/01 02:35:50;;;;;;;13.43;2.30;;;;;;;13.74;100.00;99923.63;5171203;28;20060;-71
2023/07/01 02:38:20;;;;;;;13.18;2.45;;;;;;;13.72;100.00;99917.63;5173191;28;20261;-71
2023/07/01 02:40:51;;;;;;;5.38;2.83;;;;;;;13.66;100.00;99913.56;5164570;28;20408;-71
2023/07/01 02:43:21;;;;;;;10.75;2.60;;;;;;;13.72;100.00;99915.84;5165157;28;20061;-72
2023/07/01 02:45:51;;;;;;;6.43;2.60;;;;;;;13.74;100.00;99913.97;5165308;28;20045;-71
2023/07/01 02:48:22;;;;;;;19.23;2.72;;;;;;;13.80;100.00;99897.00;5166906;28;20029;-71
2023/07/01 02:50:52;;;;;;;9.70;3.55;;;;;;;13.83;100.00;99896.81;5135417;28;20030;-71
2023/07/01 02:53:22;;;;;;;4.15;2.10;;;;;;;13.84;100.00;99893.25;5154790;28;20431;-71
2023/07/01 02:55:52;;;;;;;7.00;2.50;;;;;;;13.88;100.00;99897.41;5171416;28;20026;-72
2023/07/01 02:58:23;;;;;;;7.90;2.10;;;;;;;13.91;100.00;99897.22;5167597;28;20030;-71
2023/07/01 03:00:53;;;;;;;4.97;2.20;;;;;;;13.87;100.00;99895.69;5166868;28;20026;-71
2023/07/01 03:03:23;;;;;;;5.10;2.30;;;;;;;13.98;100.00;99895.91;5166984;28;20038;-71
2023/07/01 03:05:54;;;;;;;5.72;2.33;;;;;;;13.89;100.00;99888.59;5164503;28;20306;-71
2023/07/01 03:08:24;;;;;;;4.70;2.08;;;;;;;14.00;100.00;99886.13;5163518;28;20038;-71
2023/07/01 03:10:54;;;;;;;5.82;2.20;;;;;;;13.93;100.00;99882.19;5165642;28;20113;-71
2023/07/01 03:13:24;;;;;;;5.72;2.20;;;;;;;13.95;100.00;99889.03;5164767;28;20041;-72
2023/07/01 03:15:56;;;;;;;7.25;1.90;;;;;;;14.06;100.00;99885.78;5167011;28;20496;-72
2023/07/01 03:18:27;;;;;;;17.95;2.53;;;;;;;14.10;100.00;99885.47;5152012;28;20137;-71
2023/07/01 03:20:57;;;;;;;7.20;2.40;;;;;;;14.18;100.00;99869.28;5162953;28;20113;-71
2023/07/01 03:23:28;;;;;;;8.25;2.17;;;;;;;14.12;100.00;99875.72;5169917;28;20034;-72
2023/07/01 03:25:59;;;;;;;4.82;1.90;;;;;;;14.23;100.00;99869.88;5165970;28;20500;-72
2023/07/01 03:28:30;;;;;;;8.90;2.08;;;;;;;14.25;100.00;99860.94;5152709;28;20034;-71
2023/07/01 03:31:00;;;;;;;7.53;2.15;;;;;;;14.35;100.00;99855.94;5165871;28;20581;-71
2023/07/01 03:33:30;;;;;;;6.13;2.10;;;;;;;14.28;100.00;99850.22;5165984;28;20080;-71
2023/07/01 03:36:01;;;;;;;4.57;1.88;;;;;;;14.31;100.00;99855.31;5167741;28;20559;-72
2023/07/01 03:38:31;;;;;;;5.65;2.20;;;;;;;14.23;100.00;99857.56;5169153;28;20044;-72
2023/07/01 03:41:01;;;;;;;6.40;2.00;;;;;;;14.22;100.00;99855.03;5164057;28;20528;-72
2023/07/01 03:43:32;;;;;;;5.93;1.83;;;;;;;14.06;100.00;99846.38;5163963;28;20113;-71
2023/07/01 03:46:02;;;;;;;7.50;2.10;;;;;;;14.15;100.00;99848.41;5172278;28;20566;-71
2023/07/01 03:48:34;;;;;;;11.25;2.15;;;;;;;14.14;100.00;99850.22;5167179;28;20048;-71
2023/07/01 03:51:04;;;;;;;6.32;1.95;;;;;;;14.15;100.00;99843.16;5166255;28;20807;-72
2023/07/01 03:53:34;;;;;;;8.13;1.92;;;;;;;14.14;100.00;99841.47;5171024;28;20069;-72
2023/07/01 03:56:04;;;;;;;6.85;2.00;;;;;;;14.13;100.00;99839.78;5152810;28;20041;-72
2023/07/01 03:58:35;;;;;;;9.27;2.03;;;;;;;14.02;100.00;99834.34;5177417;28;20021;-71
2023/07/01 04:01:05;;;;;;;5.47;1.80;;;;;;;14.00;100.00;99833.59;5173262;28;20056;-71
2023/07/01 04:03:37;;;;;;;5.35;2.08;;;;;;;14.07;100.00;99841.00;5178121;28;20108;-71
2023/07/01 04:06:07;;;;;;;7.00;2.10;;;;;;;14.28;100.00;99844.13;5172126;28;20060;-71
2023/07/01 04:08:38;;;;;;;6.75;1.90;;;;;;;14.23;100.00;99835.69;5175107;28;20022;-71
2023/07/01 04:11:08;;;;;;;7.43;2.17;;;;;;;14.25;100.00;99831.19;5165457;28;20029;-72
2023/07/01 04:13:39;;;;;;;8.02;2.05;;;;;;;14.38;100.00;99829.47;5171710;28;20029;-71
2023/07/01 04:16:09;;;;;;;6.05;1.90;;;;;;;14.42;100.00;99836.25;5168561;28;20025;-71
2023/07/01 04:18:39;;;;;;;8.50;1.80;;;;;;;14.49;100.00;99833.13;5171572;28;20021;-70
2023/07/01 04:21:09;;;;;;;6.80;1.95;;;;;;;14.65;100.00;99835.63;5150692;28;20467;-70
2023/07/01 04:23:40;;;;;;;8.65;1.88;;;;;;;14.54;100.00;99824.91;5177106;28;20044;-70
2023/07/01 04:26:10;;;;;;;4.30;1.90;;;;;;;14.67;100.00;99826.69;5167384;28;20053;-70
2023/07/01 04:28:40;;;;;;;5.68;2.20;;;;;;;14.63;100.00;99821.72;5173985;28;20104;-70
2023/07/01 04:31:11;;;;;;;4.82;2.00;;;;;;;14.75;100.00;99823.56;5165942;28;20034;-70
2023/07/01 04:33:41;;;;;;;7.63;2.10;;;;;;;14.85;100.00;99815.81;5171795;28;20144;-71
2023/07/01 04:36:11;;;;;;;10.57;2.10;;;;;;;14.88;100.00;99820.88;5151698;28;20084;-71
2023/07/01 04:38:42;;;;;;;7.57;1.75;;;;;;;15.25;100.00;99814.91;5165428;28;20025;-71
2023/07/01 04:41:13;;;;;;;6.13;2.00;;;;;;;15.59;100.00;99814.34;5164749;28;20033;-71
2023/07/01 04:43:44;;;;;;;7.10;2.00;;;;;;;15.87;100.00;99803.59;5168716;28;20037;-71
2023/07/01 04:46:14;;;;;;;7.25;1.80;;;;;;;16.48;100.00;99801.00;5171440;28;20030;-71
2023/07/01 04:48:44;;;;;;;9.13;1.63;;;;;;;17.24;100.00;99797.91;5158901;28;20563;-71
2023/07/01 04:51:14;;;;;;;8.85;1.60;;;;;;;17.80;100.00;99781.22;5159248;28;20414;-71
2023/07/01 04:53:45;;;;;;;3.80;1.50;;;;;;;18.39;98.37;99780.06;5153051;28;20113;-71
2023/07/01 04:56:15;;;;;;;7.47;1.38;;;;;;;19.31;94.99;99781.22;5166462;28;20484;-71
2023/07/01 04:58:45;;;;;;;5.97;1.33;;;;;;;19.70;91.12;99773.38;5172045;28;20065;-70
2023/07/01 05:01:16;;;;;;;7.63;1.30;;;;;;;20.78;87.97;99771.69;5169263;28;20060;-72
2023/07/01 05:03:46;;;;;;;3.33;0.90;;;;;;;20.72;84.45;99774.91;5172768;28;20797;-70
2023/07/01 05:06:16;;;;;;;7.15;1.38;;;;;;;20.21;85.98;99770.69;5173542;28;20112;-71
2023/07/01 05:08:46;;;;;;;4.73;1.30;;;;;;;20.72;85.68;99761.63;5175943;28;20488;-71
2023/07/01 05:11:17;;;;;;;3.57;1.10;;;;;;;21.90;79.08;99749.66;5168588;28;20277;-71
2023/07/01 05:13:47;;;;;;;2.92;1.20;;;;;;;21.55;82.31;99752.94;5173582;28;20415;-70
2023/07/01 05:16:17;;;;;;;4.65;1.00;;;;;;;22.46;77.82;99747.72;5171109;28;20028;-71
2023/07/01 05:18:48;;;;;;;8.10;1.02;;;;;;;22.51;79.48;99740.13;5174220;28;20030;-70
2023/07/01 05:21:18;;;;;;;3.58;1.10;;;;;;;23.12;76.04;99733.94;5174540;28;20613;-71
2023/07/01 05:23:48;;;;;;;7.10;1.80;;;;;;;22.01;77.59;99737.00;5156116;28;20069;-71
2023/07/01 05:26:18;;;;;;;3.30;1.00;;;;;;;22.25;77.94;99728.47;5171838;28;20303;-71
2023/07/01 05:28:49;;;;;;;6.97;1.20;;;;;;;20.85;85.16;99743.59;5171131;28;20284;-70
2023/07/01 05:31:19;;;;;;;2.60;1.05;;;;;;;20.35;86.19;99741.13;5168439;28;20280;-71
2023/07/01 05:33:49;;;;;;;6.00;1.10;;;;;;;20.31;87.84;99737.91;5169520;28;20699;-70
2023/07/01 05:36:20;;;;;;;3.00;1.03;;;;;;;20.09;86.77;99732.00;5172909;28;20291;-71
2023/07/01 05:38:50;;;;;;;3.03;1.20;;;;;;;19.85;89.45;99732.28;5174697;28;20288;-70
2023/07/01 05:41:20;;;;;;;3.80;1.10;;;;;;;19.66;90.99;99723.38;5166016;28;20368;-71
2023/07/01 05:43:51;;;;;;;3.95;1.20;;;;;;;20.10;90.40;99718.56;5155500;28;20307;-70
2023/07/01 05:46:21;;;;;;;3.20;1.03;;;;;;;20.32;85.64;99728.16;5172682;28;20026;-71
2023/07/01 05:48:51;;;;;;;4.60;1.10;;;;;;;21.32;81.07;99717.03;5154138;28;20297;-71
2023/07/01 05:51:22;;;;;;;3.35;1.20;;;;;;;21.07;82.11;99724.75;5171525;28;20373;-71
2023/07/01 05:56:24;;;;;;;2.88;1.05;;;;;;;20.70;83.32;99723.75;5105041;29;20563;-73
2023/07/01 05:58:55;;;;;;;2.45;1.10;;;;;;;20.61;85.13;99724.56;5108393;29;20030;-74
2023/07/01 06:01:25;;;;;;;1.98;0.95;;;;;;;21.14;83.21;99717.88;5107588;29;20106;-73
2023/07/01 06:03:56;;;;;;;2.58;1.02;;;;;;;21.40;82.10;99709.16;5100614;29;20031;-73
2023/07/01 06:06:26;;;;;;;2.63;1.00;;;;;;;21.68;80.60;99702.09;5087405;29;20032;-73
2023/07/01 06:08:56;;;;;;;16.63;1.20;;;;;;;21.22;82.57;99699.41;5071401;29;20042;-73
2023/07/01 06:11:27;;;;;;;3.17;1.17;;;;;;;20.96;83.59;99706.28;5068638;29;20057;-73
2023/07/01 06:13:57;;;;;;;4.25;1.13;;;;;;;20.90;82.49;99707.69;5071854;29;20598;-74
2023/07/01 06:16:27;;;;;;;3.72;1.10;;;;;;;21.21;82.84;99693.25;5084925;29;20122;-73
2023/07/01 06:18:57;;;;;;;2.63;1.05;;;;;;;20.72;86.21;99700.53;5087140;29;20694;-74
2023/07/01 06:21:28;;;;;;;4.07;1.20;;;;;;;20.96;85.32;99698.31;5087492;29;20043;-73
2023/07/01 06:23:58;;;;;;;6.72;1.30;;;;;;;20.96;84.96;99699.16;5085803;29;20464;-74
2023/07/01 06:26:28;;;;;;;1.38;0.88;;;;;;;20.76;89.35;99691.31;5069924;29;20040;-73
2023/07/01 06:28:59;;;;;;;4.32;1.15;;;;;;;21.52;87.37;99680.56;5085706;29;20027;-73
2023/07/01 06:31:29;;;;;;;2.65;1.13;;;;;;;21.90;84.04;99688.44;5063748;29;20422;-73
2023/07/01 06:33:59;;;;;;;2.40;1.10;;;;;;;22.46;79.91;99679.31;5077492;29;20342;-73
2023/07/01 06:36:30;;;;;;;2.33;0.87;;;;;;;22.79;77.19;99675.97;5081414;29;20443;-72
2023/07/01 06:39:00;;;;;;;3.03;1.05;;;;;;;23.10;76.18;99675.41;5081284;29;20276;-71
2023/07/01 06:41:30;;;;;;;2.33;1.07;;;;;;;23.21;72.61;99675.16;5075375;29;20039;-72
2023/07/01 06:44:01;;;;;;;5.38;1.17;;;;;;;22.86;74.91;99671.72;5079435;29;20284;-72
2023/07/01 06:46:31;;;;;;;3.05;0.85;;;;;;;22.95;72.45;99666.28;5082496;29;20824;-73
2023/07/01 06:49:01;;;;;;;3.75;0.98;;;;;;;23.40;74.00;99666.13;5073967;29;20050;-72
2023/07/01 06:51:31;;;;;;;2.67;0.90;;;;;;;24.32;70.35;99673.25;5078122;29;20505;-74
2023/07/01 06:54:02;;;;;;;2.40;0.90;;;;;;;24.31;67.89;99669.75;5074830;29;20287;-72
2023/07/01 06:56:32;;;;;;;2.25;0.98;;;;;;;23.94;68.39;99673.78;5098458;28;20289;-73
2023/07/01 06:59:03;;;;;;;2.03;1.00;;;;;;;25.34;67.07;99670.88;5095077;29;20090;-73
2023/07/01 07:01:33;;;;;;;3.38;1.00;;;;;;;24.97;65.50;99665.19;5077725;29;20151;-72
2023/07/01 07:04:04;;;;;;;2.53;0.80;;;;;;;25.57;66.74;99661.13;5084976;28;20028;-73
2023/07/01 07:06:35;;;;;;;1.65;0.90;;;;;;;25.00;63.53;99651.47;5086418;29;20088;-73
2023/07/01 07:09:05;;;;;;;3.05;0.90;;;;;;;24.90;65.18;99653.47;5100102;29;20043;-74
2023/07/01 07:11:35;;;;;;;2.88;0.93;;;;;;;24.73;66.96;99651.81;5102379;29;20563;-74
2023/07/01 07:14:06;;;;;;;3.30;0.90;;;;;;;25.06;66.67;99650.81;5102483;28;20057;-73
2023/07/01 07:16:36;;;;;;;2.42;1.00;;;;;;;24.64;63.59;99658.16;5101954;28;20458;-72
2023/07/01 07:19:07;;;;;;;1.67;0.80;;;;;;;24.41;64.94;99654.41;5102651;29;20023;-73
2023/07/01 07:21:37;;;;;;;3.63;1.00;;;;;;;24.12;66.87;99654.00;5102094;28;20031;-72
2023/07/01 07:24:07;;;;;;;5.93;1.00;;;;;;;23.45;68.45;99648.66;5098569;28;20294;-71
2023/07/01 07:26:37;;;;;;;2.95;1.10;;;;;;;23.22;69.03;99639.50;5084767;29;20442;-73
2023/07/01 07:29:08;;;;;;;1.92;0.80;;;;;;;23.08;69.06;99642.75;5103424;28;20031;-73
2023/07/01 07:31:38;;;;;;;1.75;0.90;;;;;;;22.76;70.19;99639.81;5105330;28;20034;-73
2023/07/01 07:34:08;;;;;;;3.13;1.00;;;;;;;22.46;69.73;99641.19;5101787;28;20028;-73
2023/07/01 07:36:39;;;;;;;2.03;0.87;;;;;;;22.54;69.57;99638.59;5101526;28;20034;-73
2023/07/01 07:39:10;;;;;;;2.67;0.90;;;;;;;22.59;70.69;99637.16;5103503;29;20824;-72
2023/07/01 07:41:41;;;;;;;3.33;1.00;;;;;;;22.40;70.60;99631.16;5099851;28;20677;-72
2023/07/01 07:44:12;;;;;;;3.65;1.20;;;;;;;22.07;69.65;99643.25;5102004;28;20027;-73
2023/07/01 07:46:42;;;;;;;2.88;1.10;;;;;;;22.13;72.36;99639.16;5088271;29;20473;-73
2023/07/01 07:49:12;;;;;;;1.52;0.90;;;;;;;22.17;72.57;99637.84;5087721;29;20034;-72
2023/07/01 07:51:43;;;;;;;5.05;1.35;;;;;;;22.36;73.29;99633.25;5102136;28;20122;-73
2023/07/01 07:54:13;;;;;;;4.03;1.15;;;;;;;22.40;73.19;99639.97;5105083;28;20081;-73
2023/07/01 07:56:44;;;;;;;2.33;1.10;;;;;;;22.75;71.57;99629.28;5085942;29;20043;-72
2023/07/01 07:59:14;;;;;;;1.52;0.95;;;;;;;22.99;71.21;99619.66;5084889;29;20223;-73
2023/07/01 08:01:44;;;;;;;4.03;0.93;;;;;;;22.94;70.15;99621.97;5091247;29;20031;-73
2023/07/01 08:04:15;;;;;;;2.07;0.90;;;;;;;23.27;70.94;99621.22;5095150;29;20329;-74
2023/07/01 08:06:46;;;;;;;3.50;1.17;;;;;;;23.15;72.01;99619.81;5111291;29;20281;-72
2023/07/01 08:09:16;;;;;;;4.07;1.10;;;;;;;23.13;69.71;99611.13;5112903;29;20031;-73
2023/07/01 08:11:46;;;;;;;5.07;1.25;;;;;;;22.87;71.04;99614.75;5110898;29;20329;-72
2023/07/01 08:14:20;;;;;;;1.05;0.73;;;;;;;22.83;69.77;99616.06;5094872;29;20039;-74
2023/07/01 08:16:50;;;;;;;2.30;1.08;;;;;;;22.68;70.95;99609.59;5111526;29;20098;-71
2023/07/01 08:19:20;;;;;;;4.57;1.20;;;;;;;22.89;70.22;99610.09;5113984;28;20438;-74
2023/07/01 08:21:51;;;;;;;3.97;1.45;;;;;;;23.06;70.46;99594.03;5114233;29;20294;-74
2023/07/01 08:24:21;;;;;;;6.00;1.35;;;;;;;22.92;70.73;99596.44;5113810;28;20531;-74
2023/07/01 08:26:52;;;;;;;3.17;1.10;;;;;;;23.07;70.51;99601.06;5094016;29;20030;-74
2023/07/01 08:29:22;;;;;;;3.55;1.35;;;;;;;22.98;69.52;99596.66;5115142;28;20166;-73
2023/07/01 08:31:52;;;;;;;2.80;1.00;;;;;;;22.95;71.08;99589.00;5114316;29;20059;-73
2023/07/01 08:34:23;;;;;;;1.80;0.90;;;;;;;22.53;68.86;99594.28;5093461;29;20039;-74
2023/07/01 08:36:53;;;;;;;4.30;0.93;;;;;;;22.85;70.56;99590.09;5089757;29;20482;-74
2023/07/01 08:39:24;;;;;;;3.73;1.00;;;;;;;22.90;70.55;99591.28;5113409;28;20286;-74
2023/07/01 08:42:02;;;;;;;2.00;1.00;;;;;;;22.88;69.94;99582.59;5112812;28;20283;-74
2023/07/01 08:44:33;;;;;;;2.88;1.10;;;;;;;22.80;69.63;99585.22;5116362;28;20054;-73
2023/07/01 08:47:04;;;;;;;4.72;1.05;;;;;;;22.67;69.43;99582.09;5114476;28;20062;-74
2023/07/01 08:49:39;;;;;;;3.63;0.90;;;;;;;22.86;72.17;99581.91;5115923;28;20039;-74
2023/07/01 08:52:13;;;;;;;2.38;0.90;;;;;;;22.69;70.21;99573.97;5113718;28;20274;-74
2023/07/01 08:54:43;;;;;;;4.97;1.30;;;;;;;22.40;71.79;99572.56;5096388;28;20473;-72
2023/07/01 08:57:15;;;;;;;1.75;1.00;;;;;;;22.47;71.77;99569.13;5114796;28;20105;-72
2023/07/01 08:59:47;;;;;;;1.90;0.90;;;;;;;22.57;71.18;99563.72;5117822;29;20023;-73
2023/07/01 09:02:17;;;;;;;4.10;0.98;;;;;;;22.61;71.75;99559.75;5112230;28;20042;-73
2023/07/01 09:04:48;;;;;;;5.35;1.30;;;;;;;22.86;71.91;99557.94;5114453;28;20172;-72
2023/07/01 09:07:18;;;;;;;1.70;0.70;;;;;;;23.83;66.85;99554.81;5115586;28;20054;-73
2023/07/01 09:09:48;;;;;;;4.93;1.17;;;;;;;23.98;66.45;99566.53;5112039;29;20291;-72
2023/07/01 09:12:18;;;;;;;2.40;1.00;;;;;;;24.04;69.95;99567.69;5114146;28;20126;-74
2023/07/01 09:15:03;;;;;;;3.17;1.02;;;;;;;24.03;70.91;99563.38;5117627;28;20033;-73
2023/07/01 09:17:39;;;;;;;2.67;1.00;;;;;;;23.60;66.95;99560.84;5113678;28;20032;-74
2023/07/01 09:20:12;;;;;;;4.38;0.82;;;;;;;23.39;69.58;99553.25;5115817;28;20019;-73
2023/07/01 09:22:43;;;;;;;4.20;1.00;;;;;;;23.13;69.65;99552.47;5110304;28;20035;-74
2023/07/01 09:25:27;;;;;;;3.72;1.02;;;;;;;23.16;70.28;99549.47;5116110;28;20546;-74
2023/07/01 09:27:57;;;;;;;1.85;1.00;;;;;;;23.31;68.94;99544.38;5114380;28;20050;-74
2023/07/01 09:30:28;;;;;;;2.53;0.93;;;;;;;23.43;71.48;99553.78;5114866;29;20070;-74
2023/07/01 09:33:13;;;;;;;4.07;1.40;;;;;;;23.34;70.47;99546.75;5117144;28;20278;-73
2023/07/01 09:35:46;;;;;;;3.53;1.20;;;;;;;23.09;71.73;99551.09;5110591;28;20532;-75
2023/07/01 09:38:16;;;;;;;2.83;1.05;;;;;;;23.10;68.42;99541.25;5112827;28;20074;-74
2023/07/01 09:40:46;;;;;;;7.40;1.20;;;;;;;23.07;70.11;99542.41;5113863;29;20015;-73
2023/07/01 09:43:19;;;;;;;2.77;1.20;;;;;;;22.98;70.21;99539.88;5113057;28;20038;-74
2023/07/01 09:45:54;;;;;;;2.42;1.08;;;;;;;22.72;70.41;99539.03;5115276;28;20281;-72
2023/07/01 09:48:24;;;;;;;3.08;1.10;;;;;;;22.65;69.60;99535.31;5114894;28;20035;-74
2023/07/01 09:51:03;;;;;;;2.28;1.10;;;;;;;22.66;69.01;99530.81;5115823;28;20031;-74
2023/07/01 09:53:35;;;;;;;3.97;1.13;;;;;;;22.89;70.03;99533.66;5115978;28;20027;-72
2023/07/01 09:56:06;;;;;;;2.70;1.15;;;;;;;23.26;70.51;99528.88;5114881;29;20106;-73
2023/07/01 09:58:38;;;;;;;3.85;1.08;;;;;;;23.69;71.11;99518.03;5115672;29;20027;-74
2023/07/01 10:01:11;;;;;;;5.90;1.25;;;;;;;23.69;70.59;99523.38;5097568;29;20106;-74
2023/07/01 10:03:42;;;;;;;3.42;1.30;;;;;;;23.79;69.34;99523.22;5099504;29;20660;-73
2023/07/01 10:06:13;;;;;;;4.93;1.20;;;;;;;23.47;68.88;99518.63;5108695;28;20031;-72
2023/07/01 10:08:44;;;;;;;2.33;1.00;;;;;;;23.37;69.45;99528.56;5091445;28;20058;-73
2023/07/01 10:11:17;;;;;;;3.73;1.20;;;;;;;23.45;69.85;99523.28;5106939;29;20123;-73
2023/07/01 10:13:52;;;;;;;3.55;1.20;;;;;;;23.21;69.05;99527.69;5116936;28;20282;-73
2023/07/01 10:16:23;;;;;;;5.35;1.35;;;;;;;23.08;68.58;99521.91;5096535;29;20062;-72
2023/07/01 10:18:53;;;;;;;5.25;1.27;;;;;;;23.23;69.70;99520.34;5107960;28;20660;-74
2023/07/01 10:21:24;;;;;;;2.72;1.20;;;;;;;23.07;68.98;99523.75;5093555;29;20062;-73
2023/07/01 10:23:59;;;;;;;2.38;1.10;;;;;;;23.14;69.78;99506.16;5098711;29;20040;-73
2023/07/01 10:26:36;;;;;;;2.47;1.13;;;;;;;22.96;68.33;99515.19;5100213;29;20063;-73
2023/07/01 10:29:28;;;;;;;31.80;13.77;;;;;;;22.72;69.25;99525.69;5102739;29;20409;-73
2023/07/01 10:32:13;;;;;;;14.25;9.38;;;;;;;22.81;71.04;99509.59;5101215;29;20035;-73
2023/07/01 10:34:52;;;;;;;7.37;2.70;;;;;;;22.73;69.21;99514.91;5089255;29;20525;-73
2023/07/01 10:37:27;;;;;;;4.40;1.48;;;;;;;22.71;71.26;99511.53;5100000;29;20394;-73
2023/07/01 10:39:59;;;;;;;5.28;1.50;;;;;;;23.05;71.07;99507.06;5085958;29;20015;-73
2023/07/01 10:42:32;;;;;;;2.95;1.20;;;;;;;23.21;69.17;99507.16;5100290;29;20513;-72
2023/07/01 10:45:12;;;;;;;4.50;1.50;;;;;;;23.38;70.82;99492.91;5106072;29;20038;-73
2023/07/01 10:47:44;;;;;;;3.88;1.70;;;;;;;23.49;70.12;99492.63;5104354;29;20039;-73
2023/07/01 10:50:16;;;;;;;2.65;1.25;;;;;;;23.73;70.76;99487.34;5107275;29;20520;-74
2023/07/01 10:52:58;;;;;;;5.10;3.30;;;;;;;23.83;71.42;99504.09;5086114;29;20094;-73
2023/07/01 10:55:40;;;;;;;5.30;2.70;;;;;;;23.74;68.45;99491.66;5093469;29;20057;-74
2023/07/01 10:58:17;;;;;;;4.70;2.10;;;;;;;23.35;70.71;99490.56;5085144;29;20023;-76
2023/07/01 11:00:49;;;;;;;5.15;1.80;;;;;;;23.52;68.42;99492.28;5100786;29;20378;-75
2023/07/01 11:03:35;;;;;;;2.03;1.35;;;;;;;23.43;70.76;99485.28;5099892;29;20530;-74
2023/07/01 11:06:07;;;;;;;3.08;1.48;;;;;;;23.33;71.30;99486.41;5099792;29;20031;-73
2023/07/01 11:08:53;;;;;;;2.85;1.50;;;;;;;23.06;71.96;99484.75;5102303;29;20102;-74
2023/07/01 11:11:26;;;;;;;3.83;1.30;;;;;;;23.12;72.57;99488.63;5083577;29;20164;-74
2023/07/01 11:14:03;;;;;;;3.10;1.30;;;;;;;22.95;73.62;99490.38;5108847;28;20725;-73
2023/07/01 11:16:33;;;;;;;4.45;1.38;;;;;;;22.85;71.07;99494.97;5101383;29;20162;-76
2023/07/01 11:19:06;;;;;;;4.90;2.20;;;;;;;22.83;70.97;99488.97;5083271;29;20023;-72
2023/07/01 11:21:37;;;;;;;14.18;7.25;;;;;;;22.80;71.52;99501.75;5087795;29;20576;-72
2023/07/01 11:24:09;;;;;;;6.72;3.95;;;;;;;22.41;72.85;99494.34;5093855;29;20031;-75
2023/07/01 11:26:40;;;;;;;10.85;5.50;;;;;;;22.61;73.13;99496.63;5093684;29;20019;-73
2023/07/01 11:29:16;;;;;;;23.98;12.88;;;;;;;22.53;75.31;99493.94;5099426;29;20095;-75
2023/07/01 11:31:56;;;;;;;16.20;7.30;;;;;;;22.49;75.05;99497.06;5081234;29;20027;-73
2023/07/01 11:34:30;;;;;;;24.90;12.60;;;;;;;22.62;76.52;99508.16;5102234;28;20028;-75
2023/07/01 11:37:00;;;;;;;14.02;5.90;;;;;;;22.37;73.99;99493.78;5109521;29;20051;-74
2023/07/01 11:39:30;;;;;;;20.67;11.20;;;;;;;22.25;75.09;99491.53;5107846;29;20515;-75
2023/07/01 11:42:01;;;;;;;9.30;4.53;;;;;;;22.31;76.54;99496.22;5107401;28;20358;-73
2023/07/01 11:44:35;;;;;;;15.77;8.32;;;;;;;22.46;77.46;99484.06;5109076;28;20496;-74
2023/07/01 11:47:13;;;;;;;50.60;27.77;;;;;;;22.38;76.19;99491.94;5108616;29;20038;-73
2023/07/01 11:49:44;;;;;;;18.02;8.98;;;;;;;21.98;77.11;99486.28;5106788;28;20020;-74
2023/07/01 11:52:23;;;;;;;17.92;9.15;;;;;;;22.15;79.09;99485.44;5106739;29;20138;-74